createdAt,value
2023-05-11T00:02:19.320Z,101171.38
2023-05-11T00:04:48.635Z,101175.72
2023-05-11T00:07:16.515Z,101171.28
2023-05-11T00:09:44.524Z,101170.38
2023-05-11T00:12:13.349Z,101165.09
2023-05-11T00:14:41.449Z,101172.44
2023-05-11T00:17:09.312Z,101168.84
2023-05-11T00:19:37.253Z,101165.25
2023-05-11T00:22:06.427Z,101169.72
2023-05-11T00:24:34.281Z,101166.91
2023-05-11T00:27:02.203Z,101167.88
2023-05-11T00:29:30.116Z,101162.50
2023-05-11T00:31:58.101Z,101166.09
2023-05-11T00:34:25.991Z,101172.41
2023-05-11T00:36:53.960Z,101159.75
2023-05-11T00:39:23.271Z,101161.47
2023-05-11T00:41:51.186Z,101173.06
2023-05-11T00:44:19.071Z,101163.22
2023-05-11T00:46:46.992Z,101169.41
2023-05-11T00:49:17.336Z,101170.31
2023-05-11T00:51:45.332Z,101169.38
2023-05-11T00:54:15.636Z,101171.16
2023-05-11T00:56:45.091Z,101173.88
2023-05-11T00:59:14.106Z,101166.00
2023-05-11T01:01:42.091Z,101168.72
2023-05-11T01:04:10.683Z,101170.53
2023-05-11T01:06:46.738Z,101178.56
2023-05-11T01:09:25.581Z,101171.38
2023-05-11T01:12:01.643Z,101178.59
2023-05-11T01:14:40.513Z,101175.91
2023-05-11T01:17:13.213Z,101175.88
2023-05-11T01:19:44.496Z,101175.84
2023-05-11T01:22:27.111Z,101174.94
2023-05-11T01:24:59.117Z,101172.28
2023-05-11T01:27:58.447Z,101179.47
2023-05-11T01:30:30.775Z,101175.00
2023-05-11T01:33:04.510Z,101179.47
2023-05-11T01:35:34.265Z,101178.66
2023-05-11T01:38:05.312Z,101171.50
2023-05-11T01:40:37.149Z,101182.22
2023-05-11T01:43:09.278Z,101176.00
2023-05-11T01:45:44.935Z,101174.31
2023-05-11T01:48:15.684Z,101170.81
2023-05-11T01:50:44.105Z,101178.00
2023-05-11T01:53:13.379Z,101182.47
2023-05-11T01:55:42.919Z,101182.44
2023-05-11T01:58:12.080Z,101195.81
2023-05-11T02:00:42.125Z,101188.59
2023-05-11T02:03:11.164Z,101193.94
2023-05-11T02:05:40.843Z,101194.91
2023-05-11T02:08:09.752Z,101189.56
2023-05-11T02:10:39.883Z,101192.25
2023-05-11T02:13:09.915Z,101193.16
2023-05-11T02:15:41.462Z,101189.56
2023-05-11T02:18:15.258Z,101199.50
2023-05-11T02:20:46.030Z,101199.69
2023-05-11T02:23:14.960Z,101206.03
2023-05-11T02:25:44.034Z,101206.13
2023-05-11T02:28:11.999Z,101200.84
2023-05-11T02:30:45.748Z,101200.00
2023-05-11T02:33:21.480Z,101203.53
2023-05-11T02:35:52.178Z,101196.25
2023-05-11T02:38:21.170Z,101203.50
2023-05-11T02:40:52.628Z,101205.28
2023-05-11T02:43:34.838Z,101203.56
2023-05-11T02:46:07.551Z,101216.13
2023-05-11T02:49:02.965Z,101216.19
2023-05-11T02:51:35.943Z,101211.69
2023-05-11T02:54:07.222Z,101210.81
2023-05-11T02:56:35.686Z,101217.94
2023-05-11T02:59:04.198Z,101209.00
2023-05-11T03:01:32.327Z,101210.88
2023-05-11T03:04:04.732Z,101207.28
2023-05-11T03:06:33.298Z,101209.06
2023-05-11T03:09:02.252Z,101210.84
2023-05-11T03:11:30.274Z,101211.72
2023-05-11T03:13:58.884Z,101207.22
2023-05-11T03:16:27.960Z,101206.34
2023-05-11T03:18:56.659Z,101219.84
2023-05-11T03:21:28.557Z,101208.16
2023-05-11T03:23:58.194Z,101212.56
2023-05-11T03:26:30.060Z,101214.41
2023-05-11T03:29:00.260Z,101212.63
2023-05-11T03:31:28.245Z,101211.94
2023-05-11T03:33:56.343Z,101201.25
2023-05-11T03:36:27.816Z,101206.66
2023-05-11T03:38:57.572Z,101203.94
2023-05-11T03:41:29.080Z,101198.50
2023-05-11T03:44:00.300Z,101189.50
2023-05-11T03:46:29.779Z,101182.28
2023-05-11T03:49:02.409Z,101179.66
2023-05-11T03:51:31.887Z,101176.16
2023-05-11T03:53:59.942Z,101171.75
2023-05-11T03:56:28.035Z,101172.66
2023-05-11T03:58:56.072Z,101170.13
2023-05-11T04:01:24.240Z,101163.09
2023-05-11T04:03:53.540Z,101159.63
2023-05-11T04:06:21.637Z,101160.47
2023-05-11T04:08:51.050Z,101165.00
2023-05-11T04:11:18.850Z,101162.19
2023-05-11T04:13:47.462Z,101156.72
2023-05-11T04:16:15.269Z,101168.38
2023-05-11T04:18:43.146Z,101166.50
2023-05-11T04:21:11.188Z,101182.53
2023-05-11T04:23:39.334Z,101180.66
2023-05-11T04:26:08.940Z,101198.56
2023-05-11T04:28:36.900Z,101194.94
2023-05-11T04:31:04.875Z,101193.13
2023-05-11T04:33:32.726Z,101190.38
2023-05-11T04:36:00.582Z,101195.78
2023-05-11T04:38:28.431Z,101203.81
2023-05-11T04:40:56.193Z,101203.75
2023-05-11T04:43:25.406Z,101209.94
2023-05-11T04:45:53.114Z,101199.13
2023-05-11T04:48:21.174Z,101203.63
2023-05-11T04:50:48.944Z,101213.50
2023-05-11T04:53:16.852Z,101213.63
2023-05-11T04:55:44.649Z,101210.94
2023-05-11T04:58:12.634Z,101218.91
2023-05-11T05:00:41.971Z,101217.06
2023-05-11T05:03:09.807Z,101219.66
2023-05-11T05:05:37.909Z,101223.22
2023-05-11T05:08:05.895Z,101229.44
2023-05-11T05:10:33.827Z,101223.19
2023-05-11T05:13:01.670Z,101230.28
2023-05-11T05:15:29.628Z,101230.25
2023-05-11T05:17:58.962Z,101233.75
2023-05-11T05:20:27.445Z,101232.84
2023-05-11T05:22:55.242Z,101238.19
2023-05-11T05:25:23.336Z,101240.81
2023-05-11T05:27:51.038Z,101248.88
2023-05-11T05:30:19.020Z,101240.72
2023-05-11T05:32:46.927Z,101249.78
2023-05-11T05:35:16.168Z,101249.78
2023-05-11T05:37:43.890Z,101248.88
2023-05-11T05:40:12.281Z,101251.63
2023-05-11T05:42:40.172Z,101252.47
2023-05-11T05:45:09.184Z,101266.66
2023-05-11T05:47:37.237Z,101261.22
2023-05-11T05:50:05.982Z,101267.38
2023-05-11T05:52:35.486Z,101268.25
2023-05-11T05:55:03.264Z,101271.53
2023-05-11T05:57:31.299Z,101260.41
2023-05-11T05:59:59.113Z,101270.06
2023-05-11T06:02:26.939Z,101276.13
2023-05-11T06:04:54.832Z,101272.44
2023-05-11T06:07:22.620Z,101275.91
2023-05-11T06:09:51.869Z,101278.56
2023-05-11T06:12:19.541Z,101278.56
2023-05-11T06:14:47.259Z,101273.28
2023-05-11T06:17:14.955Z,101271.56
2023-05-11T06:19:42.733Z,101270.63
2023-05-11T06:22:10.442Z,101277.81
2023-05-11T06:24:38.188Z,101273.44
2023-05-11T06:27:07.375Z,101276.22
2023-05-11T06:29:35.140Z,101269.81
2023-05-11T06:32:02.984Z,101264.41
2023-05-11T06:34:30.874Z,101265.16
2023-05-11T06:37:00.222Z,101270.34
2023-05-11T06:39:27.963Z,101266.59
2023-05-11T06:41:57.075Z,101271.69
2023-05-11T06:44:27.905Z,101260.69
2023-05-11T06:46:55.633Z,101266.72
2023-05-11T06:49:23.403Z,101264.84
2023-05-11T06:51:51.197Z,101271.97
2023-05-11T06:54:19.016Z,101263.84
2023-05-11T06:56:46.803Z,101277.22
2023-05-11T06:59:14.660Z,101275.38
2023-05-11T07:01:44.189Z,101275.19
2023-05-11T07:04:11.976Z,101281.22
2023-05-11T07:06:39.802Z,101279.13
2023-05-11T07:09:08.019Z,101279.78
2023-05-11T07:11:38.098Z,101269.78
2023-05-11T07:14:05.926Z,101273.28
2023-05-11T07:16:37.855Z,101273.97
2023-05-11T07:19:08.243Z,101273.84
2023-05-11T07:21:36.334Z,101277.28
2023-05-11T07:24:04.300Z,101276.13
2023-05-11T07:26:32.203Z,101275.13
2023-05-11T07:28:59.944Z,101276.63
2023-05-11T07:31:29.975Z,101276.38
2023-05-11T07:33:57.748Z,101271.34
2023-05-11T07:36:26.963Z,101269.47
2023-05-11T07:38:54.759Z,101270.75
2023-05-11T07:41:26.126Z,101273.06
2023-05-11T07:43:53.975Z,101278.53
2023-05-11T07:46:21.810Z,101278.25
2023-05-11T07:48:51.672Z,101279.41
2023-05-11T07:51:26.815Z,101270.72
2023-05-11T07:53:54.588Z,101282.06
2023-05-11T07:56:22.334Z,101288.50
2023-05-11T07:58:50.192Z,101278.53
2023-05-11T08:01:17.971Z,101280.81
2023-05-11T08:03:45.730Z,101285.31
2023-05-11T08:06:13.530Z,101275.28
2023-05-11T08:08:42.875Z,101271.41
2023-05-11T08:11:10.949Z,101273.72
2023-05-11T08:13:38.717Z,101270.81
2023-05-11T08:16:07.742Z,101275.81
2023-05-11T08:18:35.782Z,101274.97
2023-05-11T08:21:03.681Z,101269.91
2023-05-11T08:23:31.744Z,101274.63
2023-05-11T08:26:01.203Z,101276.28
2023-05-11T08:28:28.950Z,101278.94
2023-05-11T08:30:57.574Z,101281.00
2023-05-11T08:33:37.474Z,101284.09
2023-05-11T08:36:07.459Z,101280.53
2023-05-11T08:38:36.508Z,101283.91
2023-05-11T08:41:07.663Z,101279.41
2023-05-11T08:43:36.872Z,101279.66
2023-05-11T08:46:07.364Z,101282.56
2023-05-11T08:48:35.492Z,101277.50
2023-05-11T08:51:04.245Z,101280.50
2023-05-11T08:53:32.677Z,101276.41
2023-05-11T08:56:02.384Z,101283.56
2023-05-11T08:58:33.089Z,101287.75
2023-05-11T09:01:00.929Z,101290.91
2023-05-11T09:03:31.245Z,101285.00
2023-05-11T09:06:01.149Z,101283.16
2023-05-11T09:08:32.336Z,101290.75
2023-05-11T09:11:00.946Z,101287.03
2023-05-11T09:13:28.726Z,101284.63
2023-05-11T09:15:57.876Z,101286.72
2023-05-11T09:18:25.822Z,101286.38
2023-05-11T09:20:53.576Z,101291.47
2023-05-11T09:23:25.973Z,101282.53
2023-05-11T09:25:53.568Z,101285.13
2023-05-11T09:28:26.940Z,101292.91
2023-05-11T09:30:55.287Z,101292.50
2023-05-11T09:33:26.105Z,101289.53
2023-05-11T09:35:54.543Z,101288.41
2023-05-11T09:38:23.208Z,101287.50
2023-05-11T09:40:53.333Z,101291.19
2023-05-11T09:43:22.998Z,101287.63
2023-05-11T09:45:52.536Z,101283.06
2023-05-11T09:48:30.098Z,101285.16
2023-05-11T09:51:03.803Z,101281.34
2023-05-11T09:53:43.901Z,101283.31
2023-05-11T09:56:12.371Z,101285.19
2023-05-11T09:58:48.339Z,101285.16
2023-05-11T10:01:16.579Z,101284.47
2023-05-11T10:03:50.373Z,101279.44
2023-05-11T10:06:20.451Z,101286.66
2023-05-11T10:08:49.053Z,101284.19
2023-05-11T10:11:16.925Z,101281.88
2023-05-11T10:13:45.970Z,101295.19
2023-05-11T10:16:17.157Z,101287.06
2023-05-11T10:18:45.944Z,101288.72
2023-05-11T10:21:16.583Z,101287.91
2023-05-11T10:23:44.661Z,101289.53
2023-05-11T10:26:13.037Z,101281.41
2023-05-11T10:28:41.327Z,101277.25
2023-05-11T10:31:11.426Z,101282.19
2023-05-11T10:33:40.009Z,101281.19
2023-05-11T10:36:10.142Z,101278.44
2023-05-11T10:38:39.689Z,101272.19
2023-05-11T10:41:21.761Z,101274.72
2023-05-11T10:44:12.816Z,101276.13
2023-05-11T10:46:55.594Z,101277.66
2023-05-11T10:49:39.258Z,101277.53
2023-05-11T10:52:22.070Z,101269.91
2023-05-11T10:55:06.795Z,101276.38
2023-05-11T10:57:44.684Z,101280.75
2023-05-11T11:00:52.625Z,101278.44
2023-05-11T11:03:20.684Z,101279.81
2023-05-11T11:05:48.647Z,101279.28
2023-05-11T11:08:16.634Z,101272.47
2023-05-11T11:10:46.750Z,101272.31
2023-05-11T11:13:16.957Z,101273.81
2023-05-11T11:16:14.753Z,101271.97
2023-05-11T11:18:44.202Z,101271.41
2023-05-11T11:21:15.647Z,101271.91
2023-05-11T11:23:45.548Z,101270.50
2023-05-11T11:26:16.547Z,101276.22
2023-05-11T11:29:09.671Z,101268.22
2023-05-11T11:31:38.516Z,101272.53
2023-05-11T11:34:37.378Z,101279.00
2023-05-11T11:37:06.129Z,101278.56
2023-05-11T11:40:13.014Z,101278.69
2023-05-11T11:42:44.387Z,101273.16
2023-05-11T11:45:33.218Z,101269.91
2023-05-11T11:48:09.176Z,101280.28
2023-05-11T11:50:37.186Z,101274.06
2023-05-11T11:53:05.533Z,101278.44
2023-05-11T11:55:47.250Z,101273.94
2023-05-11T11:58:59.272Z,101283.44
2023-05-11T12:01:28.289Z,101270.19
2023-05-11T12:04:24.977Z,101272.59
2023-05-11T12:06:58.062Z,101278.63
2023-05-11T12:09:26.575Z,101275.63
2023-05-11T12:11:54.708Z,101275.25
2023-05-11T12:14:24.718Z,101270.41
2023-05-11T12:17:13.554Z,101265.94
2023-05-11T12:19:43.198Z,101260.34
2023-05-11T12:22:13.965Z,101255.22
2023-05-11T12:24:42.383Z,101256.88
2023-05-11T12:27:10.444Z,101259.41
2023-05-11T12:29:40.853Z,101249.31
2023-05-11T12:32:13.594Z,101252.47
2023-05-11T12:34:41.659Z,101246.75
2023-05-11T12:37:09.730Z,101245.25
2023-05-11T12:39:37.774Z,101247.00
2023-05-11T12:42:06.195Z,101248.91
2023-05-11T12:44:36.709Z,101253.97
2023-05-11T12:47:14.318Z,101237.72
2023-05-11T12:49:43.661Z,101243.22
2023-05-11T12:52:12.425Z,101234.03
2023-05-11T12:54:41.817Z,101239.44
2023-05-11T12:57:24.122Z,101224.81
2023-05-11T13:00:08.133Z,101229.59
2023-05-11T13:02:44.675Z,101232.97
2023-05-11T13:05:14.353Z,101230.94
2023-05-11T13:07:44.056Z,101226.16
2023-05-11T13:10:13.721Z,101227.78
2023-05-11T13:12:51.886Z,101234.78
2023-05-11T13:15:21.850Z,101235.16
2023-05-11T13:17:58.581Z,101231.81
2023-05-11T13:20:27.930Z,101231.19
2023-05-11T13:23:05.750Z,101229.16
2023-05-11T13:25:34.816Z,101238.13
2023-05-11T13:28:03.079Z,101236.94
2023-05-11T13:30:32.800Z,101229.47
2023-05-11T13:33:04.046Z,101224.81
2023-05-11T13:35:32.158Z,101234.13
2023-05-11T13:38:00.266Z,101232.84
2023-05-11T13:40:28.194Z,101232.97
2023-05-11T13:42:56.855Z,101227.16
2023-05-11T13:45:24.986Z,101227.69
2023-05-11T13:47:53.073Z,101226.41
2023-05-11T13:50:22.910Z,101228.53
2023-05-11T13:52:52.176Z,101228.44
2023-05-11T13:55:20.425Z,101232.31
2023-05-11T13:57:48.855Z,101215.25
2023-05-11T14:00:17.725Z,101227.31
2023-05-11T14:02:54.596Z,101219.13
2023-05-11T14:05:23.837Z,101214.75
2023-05-11T14:07:51.694Z,101209.88
2023-05-11T14:10:21.791Z,101213.72
2023-05-11T14:12:49.581Z,101215.75
2023-05-11T14:15:20.860Z,101216.63
2023-05-11T14:17:49.185Z,101224.16
2023-05-11T14:20:17.171Z,101210.53
2023-05-11T14:22:46.807Z,101212.41
2023-05-11T14:25:14.809Z,101217.81
2023-05-11T14:27:44.877Z,101219.53
2023-05-11T14:30:13.307Z,101218.59
2023-05-11T14:32:41.142Z,101225.88
2023-05-11T14:35:09.469Z,101228.06
2023-05-11T14:37:37.895Z,101226.19
2023-05-11T14:40:08.450Z,101233.09
2023-05-11T14:42:36.461Z,101233.75
2023-05-11T14:45:04.456Z,101234.69
2023-05-11T14:47:32.431Z,101230.88
2023-05-11T14:50:00.422Z,101232.72
2023-05-11T14:52:30.367Z,101234.38
2023-05-11T14:54:58.129Z,101233.38
2023-05-11T14:57:27.409Z,101230.06
2023-05-11T15:00:00.217Z,101237.13
2023-05-11T15:02:28.689Z,101237.09
2023-05-11T15:04:56.507Z,101232.16
2023-05-11T15:07:24.190Z,101242.31
2023-05-11T15:09:52.041Z,101231.59
2023-05-11T15:12:19.784Z,101232.47
2023-05-11T15:14:49.074Z,101236.09
2023-05-11T15:17:16.798Z,101235.88
2023-05-11T15:19:44.537Z,101241.28
2023-05-11T15:22:17.514Z,101241.50
2023-05-11T15:24:45.501Z,101243.06
2023-05-11T15:27:13.576Z,101236.16
2023-05-11T15:29:41.500Z,101246.16
2023-05-11T15:32:14.242Z,101239.72
2023-05-11T15:34:55.479Z,101244.28
2023-05-11T15:37:26.764Z,101239.41
2023-05-11T15:39:54.548Z,101249.88
2023-05-11T15:42:22.255Z,101239.59
2023-05-11T15:44:49.971Z,101242.13
2023-05-11T15:47:19.061Z,101244.91
2023-05-11T15:49:46.828Z,101240.03
2023-05-11T15:52:14.562Z,101246.97
2023-05-11T15:54:42.378Z,101243.22
2023-05-11T15:57:10.256Z,101242.44
2023-05-11T15:59:38.647Z,101239.72
2023-05-11T16:02:06.498Z,101237.91
2023-05-11T16:04:35.894Z,101240.56
2023-05-11T16:07:04.422Z,101235.91
2023-05-11T16:09:32.201Z,101235.84
2023-05-11T16:12:00.077Z,101245.63
2023-05-11T16:14:27.889Z,101233.81
2023-05-11T16:16:59.372Z,101241.81
2023-05-11T16:19:27.378Z,101237.75
2023-05-11T16:21:56.685Z,101236.97
2023-05-11T16:24:24.463Z,101231.56
2023-05-11T16:26:52.288Z,101230.84
2023-05-11T16:29:20.030Z,101233.00
2023-05-11T16:31:48.096Z,101241.06
2023-05-11T16:34:15.862Z,101236.69
2023-05-11T16:36:43.642Z,101239.34
2023-05-11T16:39:13.028Z,101232.03
2023-05-11T16:41:40.902Z,101233.69
2023-05-11T16:44:08.712Z,101232.88
2023-05-11T16:46:36.843Z,101238.34
2023-05-11T16:49:04.562Z,101237.56
2023-05-11T16:51:33.890Z,101242.88
2023-05-11T16:54:01.581Z,101241.81
2023-05-11T16:56:30.753Z,101235.59
2023-05-11T16:58:58.462Z,101241.25
2023-05-11T17:01:26.213Z,101230.53
2023-05-11T17:03:54.054Z,101230.47
2023-05-11T17:06:23.862Z,101233.28
2023-05-11T17:08:53.613Z,101233.69
2023-05-11T17:11:21.487Z,101245.59
2023-05-11T17:13:57.304Z,101240.53
2023-05-11T17:16:25.313Z,101239.94
2023-05-11T17:18:59.284Z,101237.94
2023-05-11T17:21:27.288Z,101235.19
2023-05-11T17:23:58.361Z,101237.88
2023-05-11T17:26:32.592Z,101235.50
2023-05-11T17:29:13.177Z,101247.44
2023-05-11T17:31:42.133Z,101238.63
2023-05-11T17:34:10.404Z,101246.78
2023-05-11T17:36:38.917Z,101243.44
2023-05-11T17:39:06.635Z,101241.72
2023-05-11T17:41:34.408Z,101244.59
2023-05-11T17:44:02.045Z,101250.25
2023-05-11T17:46:37.477Z,101249.94
2023-05-11T17:49:06.403Z,101248.25
2023-05-11T17:51:34.219Z,101254.88
2023-05-11T17:54:01.964Z,101252.53
2023-05-11T17:56:29.772Z,101258.75
2023-05-11T17:58:57.497Z,101257.88
2023-05-11T18:01:27.338Z,101250.69
2023-05-11T18:03:58.354Z,101255.97
2023-05-11T18:06:27.037Z,101257.97
2023-05-11T18:08:54.888Z,101256.00
2023-05-11T18:11:22.976Z,101258.19
2023-05-11T18:13:50.952Z,101256.34
2023-05-11T18:16:18.838Z,101253.53
2023-05-11T18:18:46.678Z,101247.91
2023-05-11T18:21:19.113Z,101255.97
2023-05-11T18:23:46.884Z,101259.72
2023-05-11T18:26:14.764Z,101263.50
2023-05-11T18:28:42.612Z,101266.00
2023-05-11T18:31:10.346Z,101264.22
2023-05-11T18:33:38.251Z,101272.47
2023-05-11T18:36:06.591Z,101269.00
2023-05-11T18:38:35.840Z,101269.09
2023-05-11T18:41:05.659Z,101270.69
2023-05-11T18:43:34.285Z,101265.56
2023-05-11T18:46:02.072Z,101258.50
2023-05-11T18:48:29.770Z,101268.34
2023-05-11T18:50:57.820Z,101262.84
2023-05-11T18:53:25.611Z,101265.50
2023-05-11T18:55:54.859Z,101279.94
2023-05-11T18:58:23.556Z,101276.34
2023-05-11T19:00:52.342Z,101275.44
2023-05-11T19:03:22.133Z,101281.75
2023-05-11T19:05:50.605Z,101281.78
2023-05-11T19:08:18.593Z,101288.28
2023-05-11T19:10:47.956Z,101285.69
2023-05-11T19:13:17.144Z,101288.44
2023-05-11T19:15:45.010Z,101291.28
2023-05-11T19:18:12.853Z,101293.97
2023-05-11T19:20:40.727Z,101292.19
2023-05-11T19:23:08.487Z,101298.41
2023-05-11T19:25:36.683Z,101287.59
2023-05-11T19:28:04.540Z,101293.09
2023-05-11T19:30:33.783Z,101304.94
2023-05-11T19:33:01.669Z,101300.38
2023-05-11T19:35:29.983Z,101298.56
2023-05-11T19:37:57.864Z,101303.06
2023-05-11T19:40:45.178Z,101311.25
2023-05-11T19:43:13.990Z,101312.31
2023-05-11T19:45:44.124Z,101317.75
2023-05-11T19:48:12.065Z,101317.94
2023-05-11T19:50:39.862Z,101317.94
2023-05-11T19:53:07.801Z,101323.31
2023-05-11T19:55:38.100Z,101325.00
2023-05-11T19:58:06.901Z,101319.66
2023-05-11T20:00:34.889Z,101312.63
2023-05-11T20:03:04.675Z,101321.75
2023-05-11T20:05:32.642Z,101322.06
2023-05-11T20:08:01.289Z,101329.22
2023-05-11T20:10:29.257Z,101326.03
2023-05-11T20:12:58.137Z,101325.00
2023-05-11T20:15:26.360Z,101330.38
2023-05-11T20:17:54.280Z,101327.00
2023-05-11T20:20:23.968Z,101322.66
2023-05-11T20:22:52.059Z,101318.13
2023-05-11T20:25:20.030Z,101324.31
2023-05-11T20:27:47.942Z,101326.94
2023-05-11T20:30:16.527Z,101324.34
2023-05-11T20:35:15.611Z,101315.19
2023-05-11T20:37:44.911Z,101317.22
2023-05-11T20:40:13.987Z,101313.66
2023-05-11T20:42:41.918Z,101308.38
2023-05-11T20:45:10.727Z,101312.84
2023-05-11T20:47:38.817Z,101313.72
2023-05-11T20:50:08.483Z,101314.66
2023-05-11T20:52:36.749Z,101316.47
2023-05-11T20:55:07.186Z,101312.03
2023-05-11T20:57:35.291Z,101307.66
2023-05-11T21:00:05.527Z,101311.47
2023-05-11T21:02:33.455Z,101307.00
2023-05-11T21:05:02.730Z,101312.41
2023-05-11T21:07:30.948Z,101305.94
2023-05-11T21:09:58.859Z,101304.13
2023-05-11T21:12:28.372Z,101307.59
2023-05-11T21:14:57.162Z,101310.25
2023-05-11T21:17:40.810Z,101298.63
2023-05-11T21:20:50.239Z,101305.91
2023-05-11T21:23:48.897Z,101294.53
2023-05-11T21:26:38.802Z,101294.44
2023-05-11T21:29:21.096Z,101293.44
2023-05-11T21:32:02.257Z,101296.03
2023-05-11T21:34:58.190Z,101296.97
2023-05-11T21:37:36.678Z,101294.38
2023-05-11T21:40:17.641Z,101299.09
2023-05-11T21:42:46.406Z,101292.94
2023-05-11T21:45:34.538Z,101294.59
2023-05-11T21:48:02.597Z,101300.09
2023-05-11T21:50:30.769Z,101296.72
2023-05-11T21:52:59.210Z,101291.28
2023-05-11T21:55:27.287Z,101295.78
2023-05-11T21:57:55.735Z,101299.34
2023-05-11T22:00:24.344Z,101291.28
2023-05-11T22:02:54.129Z,101294.97
2023-05-11T22:05:22.639Z,101296.84
2023-05-11T22:07:53.931Z,101289.59
2023-05-11T22:10:24.578Z,101288.59
2023-05-11T22:12:53.145Z,101288.78
2023-05-11T22:15:22.687Z,101286.97
2023-05-11T22:17:50.955Z,101288.94
2023-05-11T22:20:20.918Z,101288.72
2023-05-11T22:22:49.050Z,101290.53
2023-05-11T22:25:17.230Z,101278.81
2023-05-11T22:27:45.422Z,101281.13
2023-05-11T22:30:14.016Z,101285.59
2023-05-11T22:32:42.188Z,101287.44
2023-05-11T22:35:11.016Z,101288.63
2023-05-11T22:37:40.855Z,101281.28
2023-05-11T22:40:10.082Z,101282.97
2023-05-11T22:42:38.398Z,101281.13
2023-05-11T22:45:07.664Z,101283.91
2023-05-11T22:47:35.848Z,101282.97
2023-05-11T22:50:04.403Z,101278.44
2023-05-11T22:52:32.468Z,101273.84
2023-05-11T22:55:01.891Z,101281.16
2023-05-11T22:57:29.994Z,101276.78
2023-05-11T22:59:58.458Z,101285.84
2023-05-11T23:02:26.504Z,101272.31
2023-05-11T23:04:54.600Z,101274.06
2023-05-11T23:07:22.746Z,101274.28
2023-05-11T23:09:52.590Z,101272.41
2023-05-11T23:12:22.806Z,101270.75
2023-05-11T23:14:51.185Z,101263.63
2023-05-11T23:17:19.686Z,101268.09
2023-05-11T23:19:48.151Z,101258.16
2023-05-11T23:22:16.616Z,101261.84
2023-05-11T23:24:44.823Z,101258.22
2023-05-11T23:27:13.173Z,101262.91
2023-05-11T23:29:42.850Z,101261.13
2023-05-11T23:32:10.899Z,101245.78
2023-05-11T23:34:39.158Z,101246.69
2023-05-11T23:37:07.460Z,101249.41
2023-05-11T23:39:35.474Z,101243.44
2023-05-11T23:42:04.318Z,101239.88
2023-05-11T23:44:32.274Z,101239.81
2023-05-11T23:47:01.851Z,101236.25
2023-05-11T23:49:30.372Z,101230.94
2023-05-11T23:51:58.712Z,101222.91
2023-05-11T23:54:26.691Z,101224.72
2023-05-11T23:56:54.643Z,101219.41
2023-05-11T23:59:22.530Z,101214.81
